Flight Track Log - Related Links

Times and Time Zones

All times are in EDT time to prevent confusion due to time zone crossing. See the UAL4401 flight status page for this flight to view local times or setup timezone preferences in your user account.

Time Position Orientation Groundspeed Altitude Reporting Facility
EDT Latitude Longitude Course Direction KTS MPH feet Rate Location/Type
Sun 10:05:00 PM 29.9228 -94.9219 97° East  Level FlightAware Approximate
Sun 10:06:00 PM 29.9098 -94.7836 95° East  Level FlightAware Approximate
Sun 10:07:00 PM 29.8976 -94.6452 97° East  Level FlightAware Approximate
Sun 10:08:00 PM 29.8824 -94.5072 97° East  Level FlightAware Approximate
Sun 10:09:00 PM 29.8670 -94.3692 97° East  Level FlightAware Approximate
Sun 10:10:00 PM 29.8500 -94.2354 90° East  Level FlightAware Approximate
Sun 10:11:00 PM 29.8500 -94.0963 90° East  Level FlightAware Approximate
Sun 10:12:00 PM 29.8607 -93.9583 81° East  Level FlightAware Approximate
Sun 10:13:00 PM 29.8725 -93.8202 82° East  Level FlightAware Approximate
Sun 10:14:00 PM 29.8833 -93.6820 90° East  Level FlightAware Approximate
Sun 10:15:00 PM 29.8959 -93.5439 82° East  Level FlightAware Approximate
Sun 10:16:00 PM 29.9121 -93.4061 82° East  Level FlightAware Approximate
Sun 10:17:00 PM 29.9195 -93.2676 78° East  Level FlightAware Approximate
Sun 10:18:00 PM 29.9443 -93.1314 78° East  Level FlightAware Approximate
Sun 10:19:00 PM 29.9589 -92.9934 84° East  Level FlightAware Approximate
Sun 10:20:00 PM 29.9667 -92.8546 90° East  Level FlightAware Approximate
Sun 10:21:00 PM 29.9739 -92.7161 81° East  Level FlightAware Approximate
Sun 10:22:00 PM 29.9875 -92.5780 85° East  Level FlightAware Approximate
Sun 10:23:00 PM 29.9979 -92.4392 85° East  Level FlightAware Approximate
Sun 10:24:00 PM 30.0081 -92.3005 85° East  Level FlightAware Approximate
Sun 10:25:00 PM 30.0182 -92.1617 85° East  Level FlightAware Approximate
Sun 10:26:00 PM 30.0282 -92.0229 85° East  Level FlightAware Approximate
Sun 10:27:00 PM 30.0380 -91.8840 85° East  Level FlightAware Approximate
Sun 10:28:00 PM 30.0476 -91.7452 85° East  Level FlightAware Approximate
Sun 10:29:00 PM 30.0571 -91.6063 85° East  Level FlightAware Approximate
Sun 10:30:00 PM 30.0665 -91.4673 86° East  Level FlightAware Approximate
Sun 10:31:00 PM 30.0757 -91.3284 86° East  Level FlightAware Approximate
Sun 10:32:00 PM 30.0847 -91.1894 86° East  Level FlightAware Approximate
Sun 10:33:00 PM 30.0937 -91.0504 86° East  Level FlightAware Approximate
Sun 10:34:00 PM 30.1093 -90.9128 74° East  Level FlightAware Approximate
Sun 10:35:00 PM 30.1429 -90.7789 74° East  Level FlightAware Approximate
Sun 10:36:00 PM 30.1763 -90.6449 74° East  Level FlightAware Approximate
Sun 10:37:00 PM 30.2098 -90.5108 74° East  Level FlightAware Approximate
Sun 10:38:00 PM 30.2432 -90.3767 74° East  Level FlightAware Approximate
Sun 10:39:00 PM 30.2764 -90.2425 74° East  Level FlightAware Approximate
Sun 10:40:00 PM 30.3095 -90.1082 74° East  Level FlightAware Approximate
Sun 10:41:00 PM 30.3425 -89.9738 74° East  Level FlightAware Approximate
Sun 10:42:00 PM 30.3753 -89.8393 74° East  Level FlightAware Approximate
Sun 10:43:00 PM 30.4080 -89.7047 74° East  Level FlightAware Approximate
Sun 10:44:00 PM 30.4403 -89.5700 75° East  Level FlightAware Approximate
Sun 10:45:00 PM 30.4715 -89.4348 75° East  Level FlightAware Approximate
Sun 10:46:00 PM 30.5027 -89.2996 75° East  Level FlightAware Approximate
Sun 10:47:00 PM 30.5336 -89.1643 75° East  Level FlightAware Approximate
Sun 10:48:00 PM 30.5645 -89.0289 75° East  Level FlightAware Approximate
Sun 10:49:00 PM 30.5951 -88.8935 75° East  Level FlightAware Approximate
Sun 10:50:00 PM 30.6257 -88.7579 75° East  Level FlightAware Approximate
Sun 10:51:00 PM 30.6561 -88.6223 75° East  Level FlightAware Approximate
Sun 10:52:00 PM 30.6864 -88.4865 75° East  Level FlightAware Approximate
Sun 10:53:00 PM 30.7165 -88.3507 75° East  Level FlightAware Approximate
Sun 10:54:00 PM 30.7959 -88.2452 49° Northeast  Level FlightAware Approximate
Sun 10:55:00 PM 30.8755 -88.1397 49° Northeast  Level FlightAware Approximate
Sun 10:56:00 PM 30.9550 -88.0340 49° Northeast  Level FlightAware Approximate
Sun 10:57:00 PM 31.0344 -87.9281 49° Northeast  Level FlightAware Approximate
Sun 10:58:00 PM 31.1137 -87.8220 49° Northeast  Level FlightAware Approximate
Sun 10:59:00 PM 31.1929 -87.7158 49° Northeast  Level FlightAware Approximate
Sun 11:00:00 PM 31.2718 -87.6090 52° Northeast  Level FlightAware Approximate
Sun 11:01:00 PM 31.3468 -87.4986 49° Northeast  Level FlightAware Approximate
Sun 11:02:00 PM 31.4262 -87.3923 49° Northeast  Level FlightAware Approximate
Sun 11:03:00 PM 31.5055 -87.2857 49° Northeast  Level FlightAware Approximate
Sun 11:04:00 PM 31.5847 -87.1790 49° Northeast  Level FlightAware Approximate
Sun 11:05:00 PM 31.6639 -87.0721 49° Northeast  Level FlightAware Approximate
Sun 11:06:00 PM 31.7429 -86.9651 49° Northeast  Level FlightAware Approximate
Sun 11:07:00 PM 31.8218 -86.8578 49° Northeast  Level FlightAware Approximate
Sun 11:08:00 PM 31.9007 -86.7504 49° Northeast  Level FlightAware Approximate
Sun 11:09:00 PM 31.9794 -86.6427 49° Northeast  Level FlightAware Approximate
Sun 11:10:00 PM 32.0581 -86.5349 49° Northeast  Level FlightAware Approximate
Sun 11:11:00 PM 32.1367 -86.4269 49° Northeast  Level FlightAware Approximate
Sun 11:12:00 PM 32.2152 -86.3187 49° Northeast  Level FlightAware Approximate
Sun 11:13:00 PM 32.2899 -86.2068 52° Northeast  Level FlightAware Approximate
Sun 11:14:00 PM 32.3648 -86.0949 52° Northeast  Level FlightAware Approximate
Sun 11:15:00 PM 32.4397 -85.9830 52° Northeast  Level FlightAware Approximate
Sun 11:16:00 PM 32.5145 -85.8709 52° Northeast  Level FlightAware Approximate
Sun 11:17:00 PM 32.5892 -85.7586 52° Northeast  Level FlightAware Approximate
Sun 11:18:00 PM 32.6639 -85.6461 52° Northeast  Level FlightAware Approximate
Sun 11:19:00 PM 32.7382 -85.5333 52° Northeast  Level FlightAware Approximate
Sun 11:20:00 PM 32.8125 -85.4202 52° Northeast  Level FlightAware Approximate
Sun 11:21:00 PM 32.8866 -85.3070 52° Northeast  Level FlightAware Approximate
Sun 11:22:00 PM 32.9606 -85.1935 52° Northeast  Level FlightAware Approximate
Sun 11:23:00 PM 33.0345 -85.0799 52° Northeast  Level FlightAware Approximate
Sun 11:24:00 PM 33.1083 -84.9661 52° Northeast  Level FlightAware Approximate
Sun 11:25:00 PM 33.1820 -84.8521 52° Northeast  Level FlightAware Approximate
Sun 11:26:00 PM 33.2569 -84.7391 52° Northeast  Level FlightAware Approximate
Sun 11:27:00 PM 33.3318 -84.6260 52° Northeast  Level FlightAware Approximate
Sun 11:28:00 PM 33.4065 -84.5127 52° Northeast  Level FlightAware Approximate
Sun 11:29:00 PM 33.4812 -84.3991 52° Northeast  Level FlightAware Approximate
Sun 11:30:00 PM 33.5557 -84.2854 52° Northeast  Level FlightAware Approximate
Sun 11:31:00 PM 33.6302 -84.1715 52° Northeast  Level FlightAware Approximate
Sun 11:32:00 PM 33.7028 -84.0559 53° Northeast  Level FlightAware Approximate
Sun 11:33:00 PM 33.7753 -83.9400 53° Northeast  Level FlightAware Approximate
Sun 11:34:00 PM 33.8477 -83.8239 53° Northeast  Level FlightAware Approximate
Sun 11:35:00 PM 33.9208 -83.7083 52° Northeast  Level FlightAware Approximate
Sun 11:36:00 PM 33.9945 -83.5932 52° Northeast  Level FlightAware Approximate
Sun 11:37:00 PM 34.0681 -83.4779 52° Northeast  Level FlightAware Approximate
Sun 11:38:00 PM 34.1415 -83.3624 52° Northeast  Level FlightAware Approximate
Sun 11:39:00 PM 34.2149 -83.2467 52° Northeast  Level FlightAware Approximate
Sun 11:40:00 PM 34.2882 -83.1308 53° Northeast  Level FlightAware Approximate
Sun 11:41:00 PM 34.3613 -83.0147 53° Northeast  Level FlightAware Approximate
Sun 11:42:00 PM 34.4343 -82.8984 53° Northeast  Level FlightAware Approximate
Sun 11:43:00 PM 34.5066 -82.7813 53° Northeast  Level FlightAware Approximate
Sun 11:44:00 PM 34.5788 -82.6640 53° Northeast  Level FlightAware Approximate
Sun 11:45:00 PM 34.6509 -82.5466 53° Northeast  Level FlightAware Approximate
Sun 11:46:00 PM 34.7229 -82.4289 53° Northeast  Level FlightAware Approximate
Sun 11:47:00 PM 34.7947 -82.3110 53° Northeast  Level FlightAware Approximate
Sun 11:48:00 PM 34.8665 -82.1929 53° Northeast  Level FlightAware Approximate
Sun 11:49:00 PM 34.9381 -82.0746 54° Northeast  Level FlightAware Approximate
Sun 11:50:00 PM 35.0096 -81.9561 54° Northeast  Level FlightAware Approximate
Sun 11:51:00 PM 35.0756 -81.8329 58° Northeast  Level FlightAware Approximate
Sun 11:52:00 PM 35.1386 -81.7072 58° Northeast  Level FlightAware Approximate
Sun 11:53:00 PM 35.2016 -81.5814 58° Northeast  Level FlightAware Approximate
Sun 11:54:00 PM 35.2644 -81.4554 59° Northeast  Level FlightAware Approximate
Sun 11:55:00 PM 35.3271 -81.3291 59° Northeast  Level FlightAware Approximate
Sun 11:56:00 PM 35.3931 -81.2053 57° Northeast  Level FlightAware Approximate
Sun 11:57:00 PM 35.4593 -81.0816 57° Northeast  Level FlightAware Approximate
Sun 11:58:00 PM 35.5253 -80.9577 57° Northeast  Level FlightAware Approximate
Sun 11:59:00 PM 35.5912 -80.8335 57° Northeast  Level FlightAware Approximate
Mon 12:00:00 AM 35.6570 -80.7092 57° Northeast  Level FlightAware Approximate
Mon 12:01:00 AM 35.7227 -80.5846 57° Northeast  Level FlightAware Approximate
Mon 12:02:00 AM 35.7882 -80.4599 57° Northeast  Level FlightAware Approximate
Mon 12:03:00 AM 35.8536 -80.3349 57° Northeast  Level FlightAware Approximate
Mon 12:04:00 AM 35.9189 -80.2098 57° Northeast  Level FlightAware Approximate
Mon 12:05:00 AM 35.9809 -80.0821 61° Northeast  Level FlightAware Approximate
Mon 12:06:00 AM 36.0416 -79.9534 52° Northeast  Level FlightAware Approximate
Mon 12:07:00 AM 36.1154 -79.8354 52° Northeast  Level FlightAware Approximate
Mon 12:08:00 AM 36.1876 -79.7062 55° Northeast  Level FlightAware Approximate
Mon 12:09:00 AM 36.2597 -79.5767 55° Northeast  Level FlightAware Approximate
Mon 12:10:00 AM 36.3316 -79.4469 55° Northeast  Level FlightAware Approximate
Mon 12:11:00 AM 36.4009 -79.3149 58° Northeast  Level FlightAware Approximate
Mon 12:12:00 AM 36.4771 -79.1997 56° Northeast  Level FlightAware Approximate
Mon 12:13:00 AM 36.5477 -79.0684 56° Northeast  Level FlightAware Approximate
Mon 12:14:00 AM 36.6181 -78.9369 56° Northeast  Level FlightAware Approximate
Mon 12:15:00 AM 36.6884 -78.8052 56° Northeast  Level FlightAware Approximate
Mon 12:16:00 AM 36.7560 -78.6713 58° Northeast  Level FlightAware Approximate
Mon 12:17:00 AM 36.8264 -78.5395 55° Northeast  Level FlightAware Approximate
Mon 12:18:00 AM 36.8988 -78.4092 55° Northeast  Level FlightAware Approximate
Mon 12:19:00 AM 36.9761 -78.2844 53° Northeast  Level FlightAware Approximate
Mon 12:20:00 AM 37.0656 -78.1748 34° Northeast  Level FlightAware Approximate
Mon 12:21:00 AM 37.1714 -78.0870 32° Northeast  Level FlightAware Approximate
Mon 12:22:00 AM 37.2792 -78.0029 32° Northeast  Level FlightAware Approximate
Mon 12:23:00 AM 37.3870 -77.9186 32° Northeast  Level FlightAware Approximate
Mon 12:24:00 AM 37.4947 -77.8340 32° Northeast  Level FlightAware Approximate
Mon 12:25:00 AM 37.6095 -77.7667 23° Northeast  Level FlightAware Approximate
Mon 12:26:00 AM 37.7263 -77.7038 23° Northeast  Level FlightAware Approximate
Mon 12:27:00 AM 37.8395 -77.6333 North  Level FlightAware Approximate
Mon 12:28:00 AM 37.9528 -77.5653 21° North  Level FlightAware Approximate
Mon 12:29:00 AM 38.0693 -77.5022 31° Northeast  Level FlightAware Approximate
Mon 12:30:00 AM 38.1836 -77.4332 28° Northeast  Level FlightAware Approximate
Mon 12:31:00 AM 38.2976 -77.3667 North  Level FlightAware Approximate
Mon 12:32:00 AM 38.4221 -77.3500 North  Level FlightAware Approximate
Mon 12:33:00 AM 38.5560 -77.3500 North  Level FlightAware Approximate

Login

Don't have an account? Register now (free) for customized features, flight alerts, and more!